Accueil
METAR-TAF:

METAR-TAF

Aéroports :

Aéroport d'Oxford Kidlington

Oxford, Angleterre

latitude: 51-50-13N, longitude: 1-19-12W, altitude: 82 m

Observation

Le bulletin a été fait il y a 31 minutes, à 07:20 UTC
Vent 11 kt de ouest/sud-ouest
Température 15°C
Humidité 88%
Pression 1018 hPa
Visibilité 10 km ou plus
Nuages épars à une hauteur de 1200 ft
Nuages fragmentés à une hauteur de 3000 ft

METAR: EGTK 180720Z 24011KT 9999 SCT012 BKN030 15/13 Q1018

Heure: 08:51 (07:51 UTC)

Prévision

Le bulletin a été fait il y a 1 heure et 54 minutes, à 05:57 UTC
Prévision valable du 18 à 06 UTC au 18 à 15 UTC
Vent 10 kt de ouest/sud-ouest
Visibilité 10 km ou plus
Nuages épars à une hauteur de 3000 ft
Temporairement
du 18 à 06 UTC au 18 à 09 UTC
Nuages fragmentés à une hauteur de 900 ft

TAF: EGTK 180557Z 1806/1815 24010KT 9999 SCT030 TEMPO 1806/1809 BKN009

Observations et prévisions météorologiques de plus de 4000 aéroports (messages METAR et TAF).

Les stations disponibles sont représentées par des disques jaunes et rouges sur la carte.

Passer la souris dessus pour voir le nom de la station.

Cliquer dessus pour voir les observations et prévisions météorologiques.

Pour changer de carte: cliquez sur les boutons verts avec une croix noire pour zoomer, sur le bouton vert avec un tiret pour effectuer un zoom arrière, ou sur les flèches vertes pour les cartes adjacentes.


METAR-TAF: